EKSN/CNL METAR and TAF weather

Enter ICAO airport designator
Station Type Date Time Source
EKSN METAR 2018/12/12 12:50 UTC NOAA

EKSN 121250Z 04006KT 9999 BKN018 03/00 Q1031


Station Type Date Time Source
EKSN Decoded METAR 2018/12/12 12:50 UTC NOAA

Sindal Flyveplads, Denmark (EKSN) 57-30N 010-13E 28M
Dec 12, 2018 - 07:50 AM EST / 2018.12.12 1250 UTC
Wind: from the NE (040 degrees) at 7 MPH (6 KT):0
Visibility: greater than 7 mile(s):0
Sky conditions: mostly cloudy
Temperature: 37 F (3 C)
Dew Point: 32 F (0 C)
Relative Humidity: 80%
Pressure (altimeter): 30.45 in. Hg (1031 hPa)
ob: EKSN 121250Z 04006KT 9999 BKN018 03/00 Q1031
cycle: 13

Station Type Date Time Source
EKSN TAF UTC NOAA

Error!


Example: see airport list